sensor_id;sensor_type;location;lat;lon;timestamp;pressure;altitude;pressure_sealevel;temperature;humidity
72677;BME280;60755;51.374;10.662;2023-05-19T00:01:28;98133.84;;;7.61;77.39
72677;BME280;60755;51.374;10.662;2023-05-19T00:03:57;98132.47;;;7.65;78.50
72677;BME280;60755;51.374;10.662;2023-05-19T00:06:29;98124.78;;;7.57;77.26
72677;BME280;60755;51.374;10.662;2023-05-19T00:08:57;98131.59;;;7.51;78.39
72677;BME280;60755;51.374;10.662;2023-05-19T00:11:27;98123.94;;;7.50;78.16
72677;BME280;60755;51.374;10.662;2023-05-19T00:13:56;98122.13;;;7.50;78.38
72677;BME280;60755;51.374;10.662;2023-05-19T00:16:25;98125.34;;;7.52;78.35
72677;BME280;60755;51.374;10.662;2023-05-19T00:18:53;98123.38;;;7.54;78.00
72677;BME280;60755;51.374;10.662;2023-05-19T00:21:24;98114.34;;;7.64;76.21
72677;BME280;60755;51.374;10.662;2023-05-19T00:23:53;98124.03;;;7.63;76.17
72677;BME280;60755;51.374;10.662;2023-05-19T00:26:21;98118.78;;;7.63;76.76
72677;BME280;60755;51.374;10.662;2023-05-19T00:29:00;98119.97;;;7.61;75.75
72677;BME280;60755;51.374;10.662;2023-05-19T00:31:27;98122.03;;;7.72;75.49
72677;BME280;60755;51.374;10.662;2023-05-19T00:33:56;98119.00;;;7.68;75.61
72677;BME280;60755;51.374;10.662;2023-05-19T00:36:24;98117.41;;;7.74;75.44
72677;BME280;60755;51.374;10.662;2023-05-19T00:38:52;98114.84;;;7.80;75.07
72677;BME280;60755;51.374;10.662;2023-05-19T00:41:20;98113.25;;;7.86;75.40
72677;BME280;60755;51.374;10.662;2023-05-19T00:43:49;98113.91;;;7.95;74.04
72677;BME280;60755;51.374;10.662;2023-05-19T00:46:18;98112.50;;;8.05;74.20
72677;BME280;60755;51.374;10.662;2023-05-19T00:48:47;98112.72;;;8.17;74.66
72677;BME280;60755;51.374;10.662;2023-05-19T00:51:14;98107.72;;;8.22;73.13
72677;BME280;60755;51.374;10.662;2023-05-19T00:53:43;98107.16;;;8.27;74.03
72677;BME280;60755;51.374;10.662;2023-05-19T00:56:14;98106.94;;;8.28;74.01
72677;BME280;60755;51.374;10.662;2023-05-19T00:58:43;98109.75;;;8.33;73.93
72677;BME280;60755;51.374;10.662;2023-05-19T01:01:10;98108.94;;;8.33;73.15
72677;BME280;60755;51.374;10.662;2023-05-19T01:03:40;98119.44;;;8.26;74.36
72677;BME280;60755;51.374;10.662;2023-05-19T01:06:09;98111.34;;;8.21;74.62
72677;BME280;60755;51.374;10.662;2023-05-19T01:08:37;98104.50;;;8.33;73.35
72677;BME280;60755;51.374;10.662;2023-05-19T01:11:05;98110.25;;;8.50;72.67
72677;BME280;60755;51.374;10.662;2023-05-19T01:13:33;98115.06;;;8.47;71.37
72677;BME280;60755;51.374;10.662;2023-05-19T01:16:04;98111.84;;;8.51;72.00
72677;BME280;60755;51.374;10.662;2023-05-19T01:18:44;98110.41;;;8.42;71.96
72677;BME280;60755;51.374;10.662;2023-05-19T01:21:37;98109.00;;;8.46;72.34
72677;BME280;60755;51.374;10.662;2023-05-19T01:24:33;98102.56;;;8.35;73.40
72677;BME280;60755;51.374;10.662;2023-05-19T01:27:23;98095.25;;;8.31;74.19
72677;BME280;60755;51.374;10.662;2023-05-19T01:30:32;98094.09;;;8.47;72.29
72677;BME280;60755;51.374;10.662;2023-05-19T01:33:05;98098.16;;;8.43;72.26
72677;BME280;60755;51.374;10.662;2023-05-19T01:35:35;98099.28;;;8.33;73.17
72677;BME280;60755;51.374;10.662;2023-05-19T01:38:03;98101.28;;;8.31;73.32
72677;BME280;60755;51.374;10.662;2023-05-19T01:40:33;98097.66;;;8.26;73.32
72677;BME280;60755;51.374;10.662;2023-05-19T01:43:02;98095.25;;;8.31;74.03
72677;BME280;60755;51.374;10.662;2023-05-19T01:45:33;98094.09;;;8.40;73.47
72677;BME280;60755;51.374;10.662;2023-05-19T01:48:02;98096.66;;;8.33;73.70
72677;BME280;60755;51.374;10.662;2023-05-19T01:50:31;98095.25;;;8.31;73.30
72677;BME280;60755;51.374;10.662;2023-05-19T01:52:59;98094.03;;;8.33;73.42
72677;BME280;60755;51.374;10.662;2023-05-19T01:55:26;98098.06;;;8.29;73.02
72677;BME280;60755;51.374;10.662;2023-05-19T01:58:05;98099.75;;;8.44;73.58
72677;BME280;60755;51.374;10.662;2023-05-19T02:00:47;98097.13;;;8.57;72.40
72677;BME280;60755;51.374;10.662;2023-05-19T02:03:36;98098.94;;;8.63;72.73
72677;BME280;60755;51.374;10.662;2023-05-19T02:06:17;98093.31;;;8.66;71.37
72677;BME280;60755;51.374;10.662;2023-05-19T02:08:56;98100.56;;;8.71;70.85
72677;BME280;60755;51.374;10.662;2023-05-19T02:11:27;98095.75;;;8.67;72.02
72677;BME280;60755;51.374;10.662;2023-05-19T02:14:01;98094.31;;;8.72;71.33
72677;BME280;60755;51.374;10.662;2023-05-19T02:16:31;98091.31;;;8.68;72.07
72677;BME280;60755;51.374;10.662;2023-05-19T02:19:00;98091.91;;;8.50;72.83
72677;BME280;60755;51.374;10.662;2023-05-19T02:21:27;98088.66;;;8.55;71.97
72677;BME280;60755;51.374;10.662;2023-05-19T02:23:56;98085.25;;;8.61;71.73
72677;BME280;60755;51.374;10.662;2023-05-19T02:26:23;98088.47;;;8.69;72.04
72677;BME280;60755;51.374;10.662;2023-05-19T02:28:51;98088.47;;;8.69;72.01
72677;BME280;60755;51.374;10.662;2023-05-19T02:31:18;98089.28;;;8.70;71.86
72677;BME280;60755;51.374;10.662;2023-05-19T02:33:47;98088.88;;;8.73;70.71
72677;BME280;60755;51.374;10.662;2023-05-19T02:36:14;98092.09;;;8.62;71.56
72677;BME280;60755;51.374;10.662;2023-05-19T02:38:42;98082.84;;;8.53;71.86
72677;BME280;60755;51.374;10.662;2023-05-19T02:41:09;98091.69;;;8.52;72.15
72677;BME280;60755;51.374;10.662;2023-05-19T02:43:36;98089.47;;;8.55;71.83
72677;BME280;60755;51.374;10.662;2023-05-19T02:46:04;98087.66;;;8.56;72.71
72677;BME280;60755;51.374;10.662;2023-05-19T02:48:31;98089.28;;;8.44;71.94
72677;BME280;60755;51.374;10.662;2023-05-19T02:51:00;98083.81;;;8.38;72.34
72677;BME280;60755;51.374;10.662;2023-05-19T02:53:31;98083.41;;;8.41;72.10
72677;BME280;60755;51.374;10.662;2023-05-19T02:55:58;98086.47;;;8.52;72.22
72677;BME280;60755;51.374;10.662;2023-05-19T02:58:26;98074.38;;;8.51;71.72
72677;BME280;60755;51.374;10.662;2023-05-19T03:00:53;98078.59;;;8.52;72.00
72677;BME280;60755;51.374;10.662;2023-05-19T03:03:21;98079.19;;;8.54;71.18
72677;BME280;60755;51.374;10.662;2023-05-19T03:05:48;98071.94;;;8.62;70.21
72677;BME280;60755;51.374;10.662;2023-05-19T03:08:17;98078.59;;;8.52;70.96
72677;BME280;60755;51.374;10.662;2023-05-19T03:10:45;98078.19;;;8.55;71.24
72677;BME280;60755;51.374;10.662;2023-05-19T03:13:13;98071.94;;;8.56;71.15
72677;BME280;60755;51.374;10.662;2023-05-19T03:15:42;98078.78;;;8.57;70.83
72677;BME280;60755;51.374;10.662;2023-05-19T03:18:10;98071.75;;;8.57;70.66
72677;BME280;60755;51.374;10.662;2023-05-19T03:20:38;98074.75;;;8.48;71.14
72677;BME280;60755;51.374;10.662;2023-05-19T03:23:07;98070.34;;;8.55;71.22
72677;BME280;60755;51.374;10.662;2023-05-19T03:25:36;98070.34;;;8.55;71.76
72677;BME280;60755;51.374;10.662;2023-05-19T03:28:04;98065.88;;;8.49;72.39
72677;BME280;60755;51.374;10.662;2023-05-19T03:30:31;98067.84;;;8.33;72.63
72677;BME280;60755;51.374;10.662;2023-05-19T03:33:12;98073.50;;;8.30;73.18
72677;BME280;60755;51.374;10.662;2023-05-19T03:35:40;98068.03;;;8.25;72.68
72677;BME280;60755;51.374;10.662;2023-05-19T03:38:09;98071.13;;;8.35;72.80
72677;BME280;60755;51.374;10.662;2023-05-19T03:40:39;98066.84;;;8.28;71.92
72677;BME280;60755;51.374;10.662;2023-05-19T03:43:09;98068.50;;;8.42;73.37
72677;BME280;60755;51.374;10.662;2023-05-19T03:45:44;98067.72;;;8.68;72.21
72677;BME280;60755;51.374;10.662;2023-05-19T03:48:32;98069.31;;;9.09;70.19
72677;BME280;60755;51.374;10.662;2023-05-19T03:51:17;98072.31;;;9.12;69.71
72677;BME280;60755;51.374;10.662;2023-05-19T03:53:47;98068.91;;;9.05;69.96
72677;BME280;60755;51.374;10.662;2023-05-19T03:56:16;98069.09;;;8.97;69.35
72677;BME280;60755;51.374;10.662;2023-05-19T03:58:43;98073.97;;;8.87;69.31
72677;BME280;60755;51.374;10.662;2023-05-19T04:01:12;98068.72;;;8.93;69.63
72677;BME280;60755;51.374;10.662;2023-05-19T04:03:39;98075.16;;;9.04;69.68
72677;BME280;60755;51.374;10.662;2023-05-19T04:06:07;98068.72;;;8.93;70.77
72677;BME280;60755;51.374;10.662;2023-05-19T04:08:34;98073.75;;;9.02;70.78
72677;BME280;60755;51.374;10.662;2023-05-19T04:11:02;98072.31;;;9.12;69.29
72677;BME280;60755;51.374;10.662;2023-05-19T04:13:31;98079.59;;;9.17;70.10
72677;BME280;60755;51.374;10.662;2023-05-19T04:15:59;98077.94;;;9.29;68.54
72677;BME280;60755;51.374;10.662;2023-05-19T04:18:26;98069.88;;;9.31;68.06
72677;BME280;60755;51.374;10.662;2023-05-19T04:20:53;98073.03;;;9.46;68.03
72677;BME280;60755;51.374;10.662;2023-05-19T04:23:21;98073.66;;;9.55;67.33
72677;BME280;60755;51.374;10.662;2023-05-19T04:25:49;98076.22;;;9.61;66.91
72677;BME280;60755;51.374;10.662;2023-05-19T04:28:16;98073.41;;;9.63;67.56
72677;BME280;60755;51.374;10.662;2023-05-19T04:30:45;98078.44;;;9.64;67.85
72677;BME280;60755;51.374;10.662;2023-05-19T04:33:12;98076.97;;;9.81;66.29
72677;BME280;60755;51.374;10.662;2023-05-19T04:35:41;98074.69;;;9.92;66.06
72677;BME280;60755;51.374;10.662;2023-05-19T04:38:10;98076.19;;;10.19;66.77
72677;BME280;60755;51.374;10.662;2023-05-19T04:40:39;98081.09;;;10.41;65.55
72677;BME280;60755;51.374;10.662;2023-05-19T04:43:08;98079.28;;;10.41;65.55
72677;BME280;60755;51.374;10.662;2023-05-19T04:45:36;98078.19;;;10.55;64.13
72677;BME280;60755;51.374;10.662;2023-05-19T04:48:10;98077.34;;;10.61;63.52
72677;BME280;60755;51.374;10.662;2023-05-19T04:50:37;98066.28;;;10.53;63.92
72677;BME280;60755;51.374;10.662;2023-05-19T04:53:07;98069.19;;;10.70;64.81
72677;BME280;60755;51.374;10.662;2023-05-19T04:55:36;98064.88;;;10.50;64.44
72677;BME280;60755;51.374;10.662;2023-05-19T04:58:04;98072.50;;;11.08;62.86
72677;BME280;60755;51.374;10.662;2023-05-19T05:00:32;98065.72;;;11.37;62.66
72677;BME280;60755;51.374;10.662;2023-05-19T05:03:03;98064.94;;;11.55;61.26
72677;BME280;60755;51.374;10.662;2023-05-19T05:05:34;98066.09;;;11.96;60.24
72677;BME280;60755;51.374;10.662;2023-05-19T05:08:01;98070.13;;;12.40;58.67
72677;BME280;60755;51.374;10.662;2023-05-19T05:10:34;98071.69;;;12.95;57.32
72677;BME280;60755;51.374;10.662;2023-05-19T05:13:01;98063.38;;;14.30;53.66
72677;BME280;60755;51.374;10.662;2023-05-19T05:15:29;98074.34;;;15.18;51.50
72677;BME280;60755;51.374;10.662;2023-05-19T05:18:00;98075.13;;;15.18;50.76
72677;BME280;60755;51.374;10.662;2023-05-19T05:20:29;98073.88;;;14.87;51.48
72677;BME280;60755;51.374;10.662;2023-05-19T05:22:59;98077.47;;;14.81;52.10
72677;BME280;60755;51.374;10.662;2023-05-19T05:25:28;98084.91;;;14.50;51.60
72677;BME280;60755;51.374;10.662;2023-05-19T05:27:56;98080.69;;;15.17;50.36
72677;BME280;60755;51.374;10.662;2023-05-19T05:30:25;98087.78;;;14.49;52.38
72677;BME280;60755;51.374;10.662;2023-05-19T05:32:53;98086.25;;;18.36;45.03
72677;BME280;60755;51.374;10.662;2023-05-19T05:35:29;98084.06;;;17.08;45.18
72677;BME280;60755;51.374;10.662;2023-05-19T05:37:58;98083.88;;;16.01;48.06
72677;BME280;60755;51.374;10.662;2023-05-19T05:40:26;98095.19;;;14.97;51.45
72677;BME280;60755;51.374;10.662;2023-05-19T05:42:55;98093.03;;;14.94;52.03
72677;BME280;60755;51.374;10.662;2023-05-19T05:45:25;98093.19;;;14.42;52.83
72677;BME280;60755;51.374;10.662;2023-05-19T05:47:54;98087.00;;;15.16;52.17
72677;BME280;60755;51.374;10.662;2023-05-19T05:50:23;98092.91;;;19.45;44.43
72677;BME280;60755;51.374;10.662;2023-05-19T05:52:52;98084.91;;;21.28;38.47
72677;BME280;60755;51.374;10.662;2023-05-19T05:55:25;98098.06;;;22.39;36.51
72677;BME280;60755;51.374;10.662;2023-05-19T05:57:52;98091.00;;;22.61;35.36
72677;BME280;60755;51.374;10.662;2023-05-19T06:00:21;98092.25;;;21.89;36.72
72677;BME280;60755;51.374;10.662;2023-05-19T06:02:52;98089.81;;;23.19;35.28
72677;BME280;60755;51.374;10.662;2023-05-19T06:05:19;98089.16;;;23.55;35.02
72677;BME280;60755;51.374;10.662;2023-05-19T06:07:48;98092.88;;;21.57;36.86
72677;BME280;60755;51.374;10.662;2023-05-19T06:10:23;98094.59;;;20.50;38.84
72677;BME280;60755;51.374;10.662;2023-05-19T06:12:52;98086.31;;;22.34;35.78
72677;BME280;60755;51.374;10.662;2023-05-19T06:15:20;98085.00;;;21.89;36.17
72677;BME280;60755;51.374;10.662;2023-05-19T06:17:58;98084.78;;;21.86;36.62
72677;BME280;60755;51.374;10.662;2023-05-19T06:20:25;98090.16;;;22.99;35.38
72677;BME280;60755;51.374;10.662;2023-05-19T06:22:53;98089.88;;;22.30;35.40
72677;BME280;60755;51.374;10.662;2023-05-19T06:25:24;98092.78;;;21.91;36.33
72677;BME280;60755;51.374;10.662;2023-05-19T06:27:52;98079.88;;;22.54;35.34
72677;BME280;60755;51.374;10.662;2023-05-19T06:30:21;98095.63;;;21.75;36.24
72677;BME280;60755;51.374;10.662;2023-05-19T06:32:58;98095.91;;;21.50;36.80
72677;BME280;60755;51.374;10.662;2023-05-19T06:35:27;98093.09;;;22.46;35.73
72677;BME280;60755;51.374;10.662;2023-05-19T06:37:55;98087.97;;;21.40;36.96
72677;BME280;60755;51.374;10.662;2023-05-19T06:40:22;98095.53;;;21.33;37.19
72677;BME280;60755;51.374;10.662;2023-05-19T06:42:51;98094.50;;;19.62;39.13
72677;BME280;60755;51.374;10.662;2023-05-19T06:45:27;98101.78;;;20.05;40.17
72677;BME280;60755;51.374;10.662;2023-05-19T06:47:56;98098.56;;;18.98;41.47
72677;BME280;60755;51.374;10.662;2023-05-19T06:50:24;98092.16;;;20.09;39.80
72677;BME280;60755;51.374;10.662;2023-05-19T06:52:52;98091.50;;;20.33;39.79
72677;BME280;60755;51.374;10.662;2023-05-19T06:55:19;98099.59;;;21.30;38.79
72677;BME280;60755;51.374;10.662;2023-05-19T06:57:48;98097.09;;;22.48;36.43
72677;BME280;60755;51.374;10.662;2023-05-19T07:00:19;98102.69;;;22.14;36.61
72677;BME280;60755;51.374;10.662;2023-05-19T07:02:48;98101.19;;;21.55;38.13
72677;BME280;60755;51.374;10.662;2023-05-19T07:05:15;98100.31;;;21.07;38.07
72677;BME280;60755;51.374;10.662;2023-05-19T07:07:48;98096.75;;;21.93;37.31
72677;BME280;60755;51.374;10.662;2023-05-19T07:10:19;98097.50;;;21.51;38.56
72677;BME280;60755;51.374;10.662;2023-05-19T07:12:47;98098.56;;;20.92;39.22
72677;BME280;60755;51.374;10.662;2023-05-19T07:15:16;98107.19;;;20.84;39.34
72677;BME280;60755;51.374;10.662;2023-05-19T07:17:45;98097.63;;;19.84;40.21
72677;BME280;60755;51.374;10.662;2023-05-19T07:20:13;98095.91;;;20.03;41.82
72677;BME280;60755;51.374;10.662;2023-05-19T07:22:40;98101.13;;;19.74;41.22
72677;BME280;60755;51.374;10.662;2023-05-19T07:25:08;98100.72;;;18.86;42.91
72677;BME280;60755;51.374;10.662;2023-05-19T07:27:36;98094.69;;;18.02;45.31
72677;BME280;60755;51.374;10.662;2023-05-19T07:30:04;98102.03;;;16.63;49.13
72677;BME280;60755;51.374;10.662;2023-05-19T07:32:32;98099.25;;;15.99;52.89
72677;BME280;60755;51.374;10.662;2023-05-19T07:35:01;98100.25;;;15.32;52.94
72677;BME280;60755;51.374;10.662;2023-05-19T07:37:28;98105.31;;;15.00;55.10
72677;BME280;60755;51.374;10.662;2023-05-19T07:39:56;98104.31;;;14.56;56.17
72677;BME280;60755;51.374;10.662;2023-05-19T07:42:23;98098.75;;;14.86;55.30
72677;BME280;60755;51.374;10.662;2023-05-19T07:44:51;98121.97;;;14.39;56.24
72677;BME280;60755;51.374;10.662;2023-05-19T07:47:18;98113.00;;;14.68;55.19
72677;BME280;60755;51.374;10.662;2023-05-19T07:49:46;98108.84;;;14.89;56.93
72677;BME280;60755;51.374;10.662;2023-05-19T07:52:15;98105.63;;;15.04;54.17
72677;BME280;60755;51.374;10.662;2023-05-19T07:54:43;98102.31;;;15.30;55.48
72677;BME280;60755;51.374;10.662;2023-05-19T07:57:10;98105.94;;;14.91;55.61
72677;BME280;60755;51.374;10.662;2023-05-19T07:59:39;98093.91;;;15.17;55.45
72677;BME280;60755;51.374;10.662;2023-05-19T08:02:06;98102.34;;;14.97;55.41
72677;BME280;60755;51.374;10.662;2023-05-19T08:04:34;98090.13;;;15.13;54.91
72677;BME280;60755;51.374;10.662;2023-05-19T08:07:01;98094.81;;;15.44;54.31
72677;BME280;60755;51.374;10.662;2023-05-19T08:09:30;98094.69;;;15.56;54.49
72677;BME280;60755;51.374;10.662;2023-05-19T08:11:57;98085.63;;;15.69;54.73
72677;BME280;60755;51.374;10.662;2023-05-19T08:14:26;98097.19;;;15.62;54.18
72677;BME280;60755;51.374;10.662;2023-05-19T08:16:53;98082.00;;;15.75;54.48
72677;BME280;60755;51.374;10.662;2023-05-19T08:19:21;98081.59;;;15.88;53.01
72677;BME280;60755;51.374;10.662;2023-05-19T08:21:48;98096.13;;;15.42;54.03
72677;BME280;60755;51.374;10.662;2023-05-19T08:24:16;98088.84;;;14.98;55.03
72677;BME280;60755;51.374;10.662;2023-05-19T08:26:45;98084.50;;;15.26;53.86
72677;BME280;60755;51.374;10.662;2023-05-19T08:29:12;98089.44;;;15.00;54.76
72677;BME280;60755;51.374;10.662;2023-05-19T08:31:39;98076.78;;;15.41;53.52
72677;BME280;60755;51.374;10.662;2023-05-19T08:34:07;98071.69;;;15.56;53.10
72677;BME280;60755;51.374;10.662;2023-05-19T08:36:35;98058.84;;;15.65;54.51
72677;BME280;60755;51.374;10.662;2023-05-19T08:39:03;98071.53;;;15.46;53.47
72677;BME280;60755;51.374;10.662;2023-05-19T08:41:30;98065.91;;;15.04;56.01
72677;BME280;60755;51.374;10.662;2023-05-19T08:43:59;98065.25;;;15.52;54.83
72677;BME280;60755;51.374;10.662;2023-05-19T08:46:28;98062.84;;;15.68;54.94
72677;BME280;60755;51.374;10.662;2023-05-19T08:48:58;98060.72;;;15.70;54.26
72677;BME280;60755;51.374;10.662;2023-05-19T08:51:33;98060.78;;;15.97;53.74
72677;BME280;60755;51.374;10.662;2023-05-19T08:54:08;98064.88;;;14.88;55.49
72677;BME280;60755;51.374;10.662;2023-05-19T08:56:39;98055.25;;;14.99;55.96
72677;BME280;60755;51.374;10.662;2023-05-19T08:59:07;98053.41;;;14.49;57.19
72677;BME280;60755;51.374;10.662;2023-05-19T09:01:36;98048.88;;;14.61;56.88
72677;BME280;60755;51.374;10.662;2023-05-19T09:04:03;98047.53;;;15.14;56.05
72677;BME280;60755;51.374;10.662;2023-05-19T09:06:32;98045.38;;;15.50;54.27
72677;BME280;60755;51.374;10.662;2023-05-19T09:08:59;98042.59;;;15.23;54.14
72677;BME280;60755;51.374;10.662;2023-05-19T09:11:27;98045.66;;;15.53;54.23
72677;BME280;60755;51.374;10.662;2023-05-19T09:13:54;98045.25;;;15.83;53.83
72677;BME280;60755;51.374;10.662;2023-05-19T09:16:24;98044.81;;;16.45;51.60
72677;BME280;60755;51.374;10.662;2023-05-19T09:18:56;98049.50;;;16.11;51.63
72677;BME280;60755;51.374;10.662;2023-05-19T09:21:27;98050.75;;;15.77;52.83
72677;BME280;60755;51.374;10.662;2023-05-19T09:23:56;98050.38;;;15.90;52.05
72677;BME280;60755;51.374;10.662;2023-05-19T09:26:35;98037.44;;;16.20;49.70
72677;BME280;60755;51.374;10.662;2023-05-19T09:29:09;98053.91;;;16.28;50.11
72677;BME280;60755;51.374;10.662;2023-05-19T09:31:38;98048.88;;;16.26;50.98
72677;BME280;60755;51.374;10.662;2023-05-19T09:34:11;98055.31;;;16.62;50.66
72677;BME280;60755;51.374;10.662;2023-05-19T09:36:39;98049.22;;;16.94;50.96
72677;BME280;60755;51.374;10.662;2023-05-19T09:39:13;98045.66;;;16.83;49.97
72677;BME280;60755;51.374;10.662;2023-05-19T09:41:41;98039.03;;;17.85;49.39
72677;BME280;60755;51.374;10.662;2023-05-19T09:44:12;98035.41;;;18.27;48.37
72677;BME280;60755;51.374;10.662;2023-05-19T09:46:47;98043.84;;;17.88;47.22
72677;BME280;60755;51.374;10.662;2023-05-19T09:49:19;98045.47;;;18.00;47.51
72677;BME280;60755;51.374;10.662;2023-05-19T09:51:52;98045.44;;;17.95;48.01
72677;BME280;60755;51.374;10.662;2023-05-19T09:54:21;98032.72;;;18.12;46.92
72677;BME280;60755;51.374;10.662;2023-05-19T09:56:56;98041.09;;;17.68;46.63
72677;BME280;60755;51.374;10.662;2023-05-19T09:59:25;98039.41;;;16.67;49.96
72677;BME280;60755;51.374;10.662;2023-05-19T10:01:56;98030.06;;;16.60;49.42
72677;BME280;60755;51.374;10.662;2023-05-19T10:04:25;98042.81;;;16.31;50.09
72677;BME280;60755;51.374;10.662;2023-05-19T10:06:54;98037.06;;;15.85;50.42
72677;BME280;60755;51.374;10.662;2023-05-19T10:09:25;98029.34;;;16.10;51.82
72677;BME280;60755;51.374;10.662;2023-05-19T10:11:54;98023.53;;;16.40;50.79
72677;BME280;60755;51.374;10.662;2023-05-19T10:14:23;98012.28;;;16.60;50.22
72677;BME280;60755;51.374;10.662;2023-05-19T10:16:52;98016.50;;;16.56;50.34
72677;BME280;60755;51.374;10.662;2023-05-19T10:19:22;98015.06;;;16.70;50.26
72677;BME280;60755;51.374;10.662;2023-05-19T10:21:50;98008.16;;;16.42;50.07
72677;BME280;60755;51.374;10.662;2023-05-19T10:24:18;98017.56;;;16.55;50.07
72677;BME280;60755;51.374;10.662;2023-05-19T10:26:49;98006.97;;;16.60;47.99
72677;BME280;60755;51.374;10.662;2023-05-19T10:29:22;98011.13;;;16.78;48.63
72677;BME280;60755;51.374;10.662;2023-05-19T10:31:52;98027.03;;;16.46;48.40
72677;BME280;60755;51.374;10.662;2023-05-19T10:37:38;98009.19;;;16.68;49.75
72677;BME280;60755;51.374;10.662;2023-05-19T10:40:17;98011.75;;;15.99;49.44
72677;BME280;60755;51.374;10.662;2023-05-19T10:42:56;98000.31;;;16.26;49.06
72677;BME280;60755;51.374;10.662;2023-05-19T10:45:29;97994.44;;;16.18;50.13
72677;BME280;60755;51.374;10.662;2023-05-19T10:48:00;98000.19;;;16.10;49.14
72677;BME280;60755;51.374;10.662;2023-05-19T10:50:34;97991.09;;;16.65;48.01
72677;BME280;60755;51.374;10.662;2023-05-19T10:53:03;98008.00;;;16.54;48.81
72677;BME280;60755;51.374;10.662;2023-05-19T10:55:48;98008.34;;;16.31;47.86
72677;BME280;60755;51.374;10.662;2023-05-19T10:58:38;98010.16;;;15.98;47.92
72677;BME280;60755;51.374;10.662;2023-05-19T11:01:06;97994.75;;;16.59;47.92
72677;BME280;60755;51.374;10.662;2023-05-19T11:03:45;98000.78;;;16.76;46.53
72677;BME280;60755;51.374;10.662;2023-05-19T11:06:16;97982.47;;;16.80;44.81
72677;BME280;60755;51.374;10.662;2023-05-19T11:08:45;97984.75;;;16.34;48.22
72677;BME280;60755;51.374;10.662;2023-05-19T11:11:14;97983.72;;;17.15;46.47
72677;BME280;60755;51.374;10.662;2023-05-19T11:13:42;97994.91;;;17.22;47.00
72677;BME280;60755;51.374;10.662;2023-05-19T11:16:13;97985.03;;;17.12;44.44
72677;BME280;60755;51.374;10.662;2023-05-19T11:18:40;97980.81;;;17.21;45.36
72677;BME280;60755;51.374;10.662;2023-05-19T11:21:07;97978.13;;;17.79;46.08
72677;BME280;60755;51.374;10.662;2023-05-19T11:23:37;97983.19;;;17.85;46.27
72677;BME280;60755;51.374;10.662;2023-05-19T11:26:06;97979.91;;;17.53;43.63
72677;BME280;60755;51.374;10.662;2023-05-19T11:28:34;97989.13;;;17.40;44.82
72677;BME280;60755;51.374;10.662;2023-05-19T11:31:04;97973.72;;;17.37;46.11
72677;BME280;60755;51.374;10.662;2023-05-19T11:33:35;97982.94;;;17.24;46.53
72677;BME280;60755;51.374;10.662;2023-05-19T11:36:03;97984.09;;;17.33;46.78
72677;BME280;60755;51.374;10.662;2023-05-19T11:38:31;97963.38;;;17.46;46.11
72677;BME280;60755;51.374;10.662;2023-05-19T11:40:59;97976.13;;;17.33;45.90
72677;BME280;60755;51.374;10.662;2023-05-19T11:43:28;97983.19;;;17.80;47.76
72677;BME280;60755;51.374;10.662;2023-05-19T11:45:55;97978.19;;;18.25;43.57
72677;BME280;60755;51.374;10.662;2023-05-19T11:48:22;97973.34;;;17.76;45.29
72677;BME280;60755;51.374;10.662;2023-05-19T11:50:50;97975.66;;;17.62;44.79
72677;BME280;60755;51.374;10.662;2023-05-19T11:53:18;97978.13;;;17.74;45.81
72677;BME280;60755;51.374;10.662;2023-05-19T11:55:46;97962.63;;;17.50;46.83
72677;BME280;60755;51.374;10.662;2023-05-19T11:58:14;97975.63;;;17.52;47.62
72677;BME280;60755;51.374;10.662;2023-05-19T12:00:43;97970.28;;;17.47;47.06
72677;BME280;60755;51.374;10.662;2023-05-19T12:03:12;97969.03;;;17.59;48.33
72677;BME280;60755;51.374;10.662;2023-05-19T12:05:42;97963.38;;;17.46;47.10
72677;BME280;60755;51.374;10.662;2023-05-19T12:08:10;97965.16;;;18.18;45.17
72677;BME280;60755;51.374;10.662;2023-05-19T12:10:37;97960.09;;;18.42;44.96
72677;BME280;60755;51.374;10.662;2023-05-19T12:13:05;97962.47;;;17.82;46.74
72677;BME280;60755;51.374;10.662;2023-05-19T12:15:34;97957.69;;;17.95;46.48
72677;BME280;60755;51.374;10.662;2023-05-19T12:18:02;97960.34;;;17.95;45.34
72677;BME280;60755;51.374;10.662;2023-05-19T12:20:30;97974.91;;;17.67;45.93
72677;BME280;60755;51.374;10.662;2023-05-19T12:23:01;97962.94;;;17.69;45.41
72677;BME280;60755;51.374;10.662;2023-05-19T12:25:28;97967.88;;;17.40;46.23
72677;BME280;60755;51.374;10.662;2023-05-19T12:27:59;97962.81;;;17.33;46.87
72677;BME280;60755;51.374;10.662;2023-05-19T12:30:28;97965.91;;;17.78;45.90
72677;BME280;60755;51.374;10.662;2023-05-19T12:32:56;97975.16;;;17.65;45.56
72677;BME280;60755;51.374;10.662;2023-05-19T12:35:26;97966.78;;;18.29;44.65
72677;BME280;60755;51.374;10.662;2023-05-19T12:37:54;97965.69;;;18.66;44.44
72677;BME280;60755;51.374;10.662;2023-05-19T12:40:22;97957.16;;;18.64;44.20
72677;BME280;60755;51.374;10.662;2023-05-19T12:42:50;97948.63;;;18.87;43.78
72677;BME280;60755;51.374;10.662;2023-05-19T12:45:22;97942.78;;;18.50;45.67
72677;BME280;60755;51.374;10.662;2023-05-19T12:47:50;97945.38;;;19.00;44.49
72677;BME280;60755;51.374;10.662;2023-05-19T12:50:17;97947.03;;;18.81;44.88
72677;BME280;60755;51.374;10.662;2023-05-19T12:52:47;97945.97;;;18.82;44.67
72677;BME280;60755;51.374;10.662;2023-05-19T12:55:16;97943.88;;;18.23;42.30
72677;BME280;60755;51.374;10.662;2023-05-19T12:57:48;97943.34;;;18.31;43.75
72677;BME280;60755;51.374;10.662;2023-05-19T13:00:17;97945.47;;;18.29;47.15
72677;BME280;60755;51.374;10.662;2023-05-19T13:02:57;97938.53;;;18.03;45.21
72677;BME280;60755;51.374;10.662;2023-05-19T13:05:24;97929.97;;;17.65;45.93
72677;BME280;60755;51.374;10.662;2023-05-19T13:07:55;97924.72;;;18.11;47.41
72677;BME280;60755;51.374;10.662;2023-05-19T13:10:22;97930.56;;;18.33;46.55